Garrison, Kentucky
Current Conditions -  °F | °C
As of 5:35 AM on Saturday 22 Nov 2014 (Local Time) from KDWU Reporting Station
Overcast Overcast  
Wind Chill: 27°   Ceiling: 9000
Heat Index: 27°   Visibility: 10mi
Dew Point: 19°   Wind: 3mph
Humidity: 74%   Direction: 130°SE
Pressure: 30.36"   Gusts: NA
Location:  38.61°N, 83.17°W
Report Text: KDWU 221035Z AUTO 13003KT 10SM FEW050 OVC090 M03/M07 A3036 RMK AO1
Loading
Personal Weather Stations






























Interactive Weather Map New forecast layout! Learn more

10-Day Weather Forecast

Advertisements
Track Severe Weather on mobile